createdAt,value
2019-03-08T00:02:29.339Z,95076.44
2019-03-08T00:05:02.291Z,95072.64
2019-03-08T00:07:35.105Z,95070.44
2019-03-08T00:10:08.720Z,95074.54
2019-03-08T00:12:41.700Z,95080.50
2019-03-08T00:15:14.900Z,95083.04
2019-03-08T00:17:47.686Z,95081.66
2019-03-08T00:20:20.508Z,95075.33
2019-03-08T00:22:53.272Z,95077.31
2019-03-08T00:25:26.355Z,95072.34
2019-03-08T00:27:59.212Z,95067.98
2019-03-08T00:30:32.304Z,95075.48
2019-03-08T00:33:05.072Z,95074.92
2019-03-08T00:35:37.977Z,95082.45
2019-03-08T00:38:10.984Z,95072.57
2019-03-08T00:40:43.757Z,95068.07
2019-03-08T00:43:17.799Z,95074.30
2019-03-08T00:45:50.580Z,95082.52
2019-03-08T00:48:24.949Z,95079.50
2019-03-08T00:50:57.755Z,95077.61
2019-03-08T00:53:30.832Z,95081.14
2019-03-08T00:56:05.692Z,95073.32
2019-03-08T00:58:38.740Z,95065.42
2019-03-08T01:01:11.563Z,95065.22
2019-03-08T01:03:44.477Z,95064.70
2019-03-08T01:06:17.445Z,95057.23
2019-03-08T01:08:50.002Z,95054.55
2019-03-08T01:11:22.820Z,95060.81
2019-03-08T01:13:55.758Z,95060.78
2019-03-08T01:16:28.690Z,95059.03
2019-03-08T01:19:01.492Z,95058.98
2019-03-08T01:21:34.167Z,95058.05
2019-03-08T01:24:06.812Z,95055.45
2019-03-08T01:26:43.511Z,95054.95
2019-03-08T01:29:16.401Z,95053.73
2019-03-08T01:31:49.141Z,95055.25
2019-03-08T01:34:22.145Z,95056.22
2019-03-08T01:36:54.994Z,95057.11
2019-03-08T01:39:27.757Z,95055.20
2019-03-08T01:42:00.597Z,95051.08
2019-03-08T01:44:33.939Z,95057.44
2019-03-08T01:47:06.990Z,95061.50
2019-03-08T01:49:39.548Z,95057.10
2019-03-08T01:52:12.324Z,95052.81
2019-03-08T01:54:45.037Z,95049.33
2019-03-08T01:57:17.974Z,95055.23
2019-03-08T01:59:50.798Z,95055.48
2019-03-08T02:02:23.480Z,95049.89
2019-03-08T02:04:56.390Z,95055.48
2019-03-08T02:07:29.327Z,95051.60
2019-03-08T02:10:02.296Z,95053.67
2019-03-08T02:12:35.132Z,95061.13
2019-03-08T02:15:11.073Z,95064.89
2019-03-08T02:17:44.971Z,95058.50
2019-03-08T02:20:20.107Z,95059.80
2019-03-08T02:22:53.150Z,95061.39
2019-03-08T02:25:25.843Z,95059.23
2019-03-08T02:27:58.612Z,95063.52
2019-03-08T02:30:31.624Z,95060.30
2019-03-08T02:33:04.606Z,95063.15
2019-03-08T02:35:37.485Z,95064.94
2019-03-08T02:38:10.314Z,95069.34
2019-03-08T02:40:43.168Z,95072.68
2019-03-08T02:43:19.277Z,95083.92
2019-03-08T02:45:53.156Z,95075.28
2019-03-08T02:48:25.776Z,95081.64
2019-03-08T02:50:58.765Z,95076.86
2019-03-08T02:53:31.461Z,95083.20
2019-03-08T02:56:04.262Z,95089.25
2019-03-08T02:58:37.133Z,95090.94
2019-03-08T03:01:10.153Z,95093.23
2019-03-08T03:03:44.012Z,95090.69
2019-03-08T03:06:17.086Z,95092.36
2019-03-08T03:08:49.810Z,95090.53
2019-03-08T03:11:22.802Z,95091.51
2019-03-08T03:13:58.503Z,95091.95
2019-03-08T03:16:31.585Z,95089.81
2019-03-08T03:19:04.829Z,95091.73
2019-03-08T03:21:39.184Z,95090.05
2019-03-08T03:24:12.060Z,95092.83
2019-03-08T03:26:45.202Z,95089.63
2019-03-08T03:29:39.905Z,95096.84
2019-03-08T03:32:14.017Z,95098.08
2019-03-08T03:34:46.856Z,95096.36
2019-03-08T03:37:19.997Z,95101.67
2019-03-08T03:39:52.939Z,95107.87
2019-03-08T03:42:26.124Z,95099.55
2019-03-08T03:44:58.857Z,95105.41
2019-03-08T03:47:33.275Z,95108.96
2019-03-08T03:50:07.509Z,95114.73
2019-03-08T03:52:40.890Z,95113.80
2019-03-08T03:55:17.785Z,95118.28
2019-03-08T03:57:51.294Z,95112.00
2019-03-08T04:00:24.615Z,95127.77
2019-03-08T04:02:57.924Z,95125.24
2019-03-08T04:05:30.885Z,95126.52
2019-03-08T04:08:04.051Z,95131.67
2019-03-08T04:10:36.859Z,95134.49
2019-03-08T04:13:09.584Z,95131.54
2019-03-08T04:15:42.467Z,95131.67
2019-03-08T04:18:15.627Z,95134.44
2019-03-08T04:20:50.791Z,95137.75
2019-03-08T04:23:23.841Z,95130.67
2019-03-08T04:25:56.840Z,95135.84
2019-03-08T04:28:29.850Z,95134.16
2019-03-08T04:31:02.809Z,95133.27
2019-03-08T04:33:35.891Z,95127.94
2019-03-08T04:36:09.163Z,95131.63
2019-03-08T04:38:42.369Z,95125.78
2019-03-08T04:41:15.541Z,95126.04
2019-03-08T04:43:48.583Z,95123.25
2019-03-08T04:46:21.695Z,95121.18
2019-03-08T04:48:54.721Z,95108.23
2019-03-08T04:51:27.852Z,95118.83
2019-03-08T04:54:00.689Z,95116.91
2019-03-08T04:56:33.533Z,95110.91
2019-03-08T04:59:06.913Z,95114.27
2019-03-08T05:01:41.083Z,95107.37
2019-03-08T05:04:14.534Z,95109.30
2019-03-08T05:06:47.429Z,95105.33
2019-03-08T05:09:23.558Z,95104.30
2019-03-08T05:11:57.775Z,95104.98
2019-03-08T05:14:30.834Z,95110.02
2019-03-08T05:17:04.040Z,95110.69
2019-03-08T05:19:37.775Z,95110.91
2019-03-08T05:22:10.809Z,95112.68
2019-03-08T05:24:43.857Z,95126.98
2019-03-08T05:27:17.336Z,95127.33
2019-03-08T05:29:50.498Z,95123.11
2019-03-08T05:32:23.431Z,95119.80
2019-03-08T05:34:56.702Z,95123.41
2019-03-08T05:37:29.805Z,95128.16
2019-03-08T05:40:02.993Z,95130.75
2019-03-08T05:42:36.227Z,95124.14
2019-03-08T05:45:10.188Z,95127.38
2019-03-08T05:47:43.265Z,95118.52
2019-03-08T05:50:17.903Z,95122.55
2019-03-08T05:52:50.774Z,95124.28
2019-03-08T05:55:23.824Z,95125.03
2019-03-08T05:57:57.064Z,95130.74
2019-03-08T06:00:32.945Z,95124.97
2019-03-08T06:03:06.613Z,95128.13
2019-03-08T06:05:46.249Z,95124.61
2019-03-08T06:08:21.733Z,95129.05
2019-03-08T06:10:57.993Z,95135.03
2019-03-08T06:13:31.344Z,95131.25
2019-03-08T06:16:04.747Z,95125.33
2019-03-08T06:18:37.929Z,95120.77
2019-03-08T06:21:11.379Z,95120.20
2019-03-08T06:23:44.678Z,95120.75
2019-03-08T06:26:17.575Z,95122.08
2019-03-08T06:28:53.717Z,95123.05
2019-03-08T06:31:28.199Z,95124.25
2019-03-08T06:34:01.334Z,95127.36
2019-03-08T06:36:34.901Z,95115.63
2019-03-08T06:39:09.422Z,95113.77
2019-03-08T06:41:42.589Z,95111.46
2019-03-08T06:44:15.692Z,95110.68
2019-03-08T06:46:48.772Z,95114.80
2019-03-08T06:49:21.946Z,95106.06
2019-03-08T06:51:55.391Z,95110.39
2019-03-08T06:54:28.642Z,95109.48
2019-03-08T06:57:02.258Z,95114.63
2019-03-08T06:59:49.171Z,95113.59
2019-03-08T07:02:22.654Z,95115.11
2019-03-08T07:04:56.197Z,95117.03
2019-03-08T07:07:29.512Z,95118.29
2019-03-08T07:10:03.238Z,95125.23
2019-03-08T07:12:36.514Z,95119.00
2019-03-08T07:15:10.195Z,95116.27
2019-03-08T07:17:44.022Z,95123.70
2019-03-08T07:20:29.343Z,95118.62
2019-03-08T07:23:27.600Z,95121.52
2019-03-08T07:26:13.022Z,95117.67
2019-03-08T07:29:11.073Z,95122.53
2019-03-08T07:32:02.437Z,95122.55
2019-03-08T07:34:53.085Z,95121.02
2019-03-08T07:37:43.687Z,95112.52
2019-03-08T07:40:35.895Z,95117.48
2019-03-08T07:43:24.317Z,95109.19
2019-03-08T07:46:19.121Z,95107.78
2019-03-08T07:49:29.370Z,95105.23
2019-03-08T07:52:31.114Z,95100.47
2019-03-08T07:55:14.772Z,95093.50
2019-03-08T07:57:59.008Z,95089.46
2019-03-08T08:00:51.543Z,95089.19
2019-03-08T08:03:29.483Z,95084.22
2019-03-08T08:06:12.685Z,95079.77
2019-03-08T08:09:13.618Z,95080.27
2019-03-08T08:12:14.826Z,95077.46
2019-03-08T08:15:22.269Z,95083.87
2019-03-08T08:18:17.479Z,95076.59
2019-03-08T08:21:09.905Z,95078.63
2019-03-08T08:24:00.431Z,95077.94
2019-03-08T08:26:49.965Z,95081.86
2019-03-08T08:29:50.204Z,95083.13
2019-03-08T08:32:48.338Z,95079.99
2019-03-08T08:35:39.572Z,95077.41
2019-03-08T08:38:49.983Z,95071.42
2019-03-08T08:41:41.486Z,95074.61
2019-03-08T08:44:32.503Z,95072.67
2019-03-08T08:47:36.594Z,95071.28
2019-03-08T08:50:44.591Z,95068.73
2019-03-08T08:53:29.253Z,95062.44
2019-03-08T08:56:21.053Z,95059.45
2019-03-08T08:59:04.410Z,95055.88
2019-03-08T09:01:59.773Z,95059.14
2019-03-08T09:05:03.631Z,95058.97
2019-03-08T09:07:55.471Z,95064.02
2019-03-08T09:10:43.923Z,95051.23
2019-03-08T09:13:48.057Z,95045.55
2019-03-08T09:16:46.500Z,95042.20
2019-03-08T09:19:31.261Z,95039.39
2019-03-08T09:22:23.099Z,95039.07
2019-03-08T09:25:14.562Z,95038.86
2019-03-08T09:28:18.988Z,95032.52
2019-03-08T09:31:10.894Z,95031.67
2019-03-08T09:34:00.868Z,95038.37
2019-03-08T09:36:55.823Z,95034.05
2019-03-08T09:39:46.382Z,95032.23
2019-03-08T09:42:38.576Z,95021.73
2019-03-08T09:45:30.009Z,95028.86
2019-03-08T09:48:22.513Z,95020.06
2019-03-08T09:51:05.908Z,95021.53
2019-03-08T09:53:48.512Z,95016.51
2019-03-08T09:56:33.399Z,95015.80
2019-03-08T09:59:37.776Z,95011.72
2019-03-08T10:02:26.925Z,95009.47
2019-03-08T10:05:31.235Z,95006.75
2019-03-08T10:08:15.489Z,95000.34
2019-03-08T10:11:00.768Z,95001.86
2019-03-08T10:13:52.740Z,94998.16
2019-03-08T10:16:34.264Z,94992.76
2019-03-08T10:19:27.011Z,94982.66
2019-03-08T10:22:22.291Z,94981.25
2019-03-08T10:25:16.893Z,94975.49
2019-03-08T10:28:15.243Z,94972.14
2019-03-08T10:31:19.529Z,94969.06
2019-03-08T10:34:09.306Z,94970.02
2019-03-08T10:37:00.098Z,94967.96
2019-03-08T10:39:52.134Z,94963.27
2019-03-08T10:42:53.785Z,94961.50
2019-03-08T10:45:42.016Z,94959.45
2019-03-08T10:48:32.798Z,94956.70
2019-03-08T10:51:20.364Z,94953.02
2019-03-08T10:54:11.535Z,94946.91
2019-03-08T10:57:12.594Z,94946.40
2019-03-08T11:00:03.877Z,94932.43
2019-03-08T11:02:53.843Z,94930.73
2019-03-08T11:05:30.280Z,94931.09
2019-03-08T11:08:29.577Z,94922.73
2019-03-08T11:11:06.579Z,94917.75
2019-03-08T11:14:01.477Z,94915.71
2019-03-08T11:16:53.396Z,94905.70
2019-03-08T11:19:33.264Z,94905.69
2019-03-08T11:22:14.368Z,94897.80
2019-03-08T11:25:08.485Z,94892.70
2019-03-08T11:27:58.283Z,94893.97
2019-03-08T11:30:53.804Z,94893.55
2019-03-08T11:33:41.123Z,94887.77
2019-03-08T11:36:38.034Z,94883.16
2019-03-08T11:39:37.455Z,94885.16
2019-03-08T11:42:21.783Z,94877.75
2019-03-08T11:45:07.342Z,94876.67
2019-03-08T11:47:51.524Z,94876.16
2019-03-08T11:51:14.125Z,94875.37
2019-03-08T11:54:03.025Z,94870.98
2019-03-08T11:57:01.972Z,94858.11
2019-03-08T12:00:03.162Z,94856.50
2019-03-08T12:02:53.882Z,94847.22
2019-03-08T12:05:54.789Z,94845.97
2019-03-08T12:08:40.270Z,94846.14
2019-03-08T12:11:37.940Z,94847.38
2019-03-08T12:14:30.092Z,94840.73
2019-03-08T12:17:22.368Z,94849.23
2019-03-08T12:20:03.671Z,94838.37
2019-03-08T12:23:14.088Z,94832.89
2019-03-08T12:26:06.563Z,94830.45
2019-03-08T12:28:49.569Z,94828.09
2019-03-08T12:31:45.047Z,94832.94
2019-03-08T12:34:37.296Z,94820.98
2019-03-08T12:37:25.332Z,94817.53
2019-03-08T12:40:16.426Z,94821.18
2019-03-08T12:43:14.593Z,94812.89
2019-03-08T12:45:54.361Z,94813.61
2019-03-08T12:48:52.015Z,94814.18
2019-03-08T12:51:56.491Z,94815.72
2019-03-08T12:54:51.264Z,94808.92
2019-03-08T12:57:42.603Z,94812.48
2019-03-08T13:00:51.915Z,94799.75
2019-03-08T13:03:58.955Z,94797.25
2019-03-08T13:07:00.529Z,94785.98
2019-03-08T13:09:47.515Z,94790.98
2019-03-08T13:12:21.180Z,94787.31
2019-03-08T13:14:54.968Z,94780.77
2019-03-08T13:17:28.256Z,94776.34
2019-03-08T13:20:01.203Z,94784.34
2019-03-08T13:22:34.644Z,94786.98
2019-03-08T13:25:08.523Z,94776.33
2019-03-08T13:27:41.725Z,94773.52
2019-03-08T13:30:19.879Z,94777.58
2019-03-08T13:32:53.455Z,94776.45
2019-03-08T13:35:27.088Z,94774.54
2019-03-08T13:38:00.481Z,94768.19
2019-03-08T13:40:34.015Z,94759.75
2019-03-08T13:43:07.411Z,94759.72
2019-03-08T13:45:40.849Z,94762.00
2019-03-08T13:48:16.727Z,94758.21
2019-03-08T13:50:50.340Z,94757.47
2019-03-08T13:53:34.623Z,94756.33
2019-03-08T13:56:11.481Z,94759.45
2019-03-08T13:58:45.183Z,94758.39
2019-03-08T14:01:18.689Z,94758.78
2019-03-08T14:03:52.400Z,94753.70
2019-03-08T14:06:28.326Z,94765.73
2019-03-08T14:09:02.273Z,94754.24
2019-03-08T14:11:35.822Z,94754.38
2019-03-08T14:14:09.129Z,94756.27
2019-03-08T14:16:42.242Z,94753.05
2019-03-08T14:19:15.490Z,94754.24
2019-03-08T14:21:48.926Z,94760.23
2019-03-08T14:24:22.496Z,94746.14
2019-03-08T14:26:55.600Z,94750.30
2019-03-08T14:29:28.705Z,94746.94
2019-03-08T14:32:09.081Z,94737.98
2019-03-08T14:34:42.254Z,94742.41
2019-03-08T14:37:16.189Z,94739.17
2019-03-08T14:40:05.446Z,94746.02
2019-03-08T14:42:50.262Z,94744.87
2019-03-08T14:45:52.055Z,94743.14
2019-03-08T14:48:25.309Z,94750.08
2019-03-08T14:50:58.368Z,94749.91
2019-03-08T14:53:32.868Z,94766.13
2019-03-08T14:56:06.953Z,94768.71
2019-03-08T14:58:41.240Z,94768.75
2019-03-08T15:01:14.541Z,94770.10
2019-03-08T15:03:48.156Z,94767.45
2019-03-08T15:06:21.455Z,94773.91
2019-03-08T15:08:55.941Z,94780.07
2019-03-08T15:11:29.549Z,94777.16
2019-03-08T15:14:02.882Z,94784.58
2019-03-08T15:16:39.191Z,94790.89
2019-03-08T15:19:11.641Z,94789.94
2019-03-08T15:21:48.583Z,94791.56
2019-03-08T15:24:20.022Z,94796.78
2019-03-08T15:26:53.366Z,94800.45
2019-03-08T15:29:26.428Z,94803.70
2019-03-08T15:32:00.046Z,94808.98
2019-03-08T15:34:33.974Z,94815.75
2019-03-08T15:37:06.944Z,94811.75
2019-03-08T15:39:40.501Z,94812.93
2019-03-08T15:42:13.721Z,94817.44
2019-03-08T15:44:47.222Z,94818.10
2019-03-08T15:47:23.888Z,94828.92
2019-03-08T15:49:58.468Z,94832.19
2019-03-08T15:52:31.753Z,94828.11
2019-03-08T15:55:05.968Z,94831.23
2019-03-08T15:57:39.552Z,94834.14
2019-03-08T16:00:18.297Z,94836.13
2019-03-08T16:02:51.798Z,94840.70
2019-03-08T16:05:28.212Z,94844.04
2019-03-08T16:08:01.801Z,94847.98
2019-03-08T16:10:35.464Z,94857.17
2019-03-08T16:13:08.335Z,94851.38
2019-03-08T16:15:41.094Z,94857.66
2019-03-08T16:18:13.850Z,94859.28
2019-03-08T16:20:47.308Z,94855.89
2019-03-08T16:23:21.282Z,94863.05
2019-03-08T16:25:54.691Z,94861.17
2019-03-08T16:28:28.259Z,94860.48
2019-03-08T16:31:35.370Z,94866.43
2019-03-08T16:34:09.741Z,94868.18
2019-03-08T16:37:00.461Z,94873.38
2019-03-08T16:39:50.607Z,94873.86
2019-03-08T16:42:42.289Z,94877.64
2019-03-08T16:45:43.070Z,94880.67
2019-03-08T16:48:23.799Z,94890.55
2019-03-08T16:51:07.712Z,94887.88
2019-03-08T16:54:06.311Z,94898.33
2019-03-08T16:57:16.632Z,94903.34
2019-03-08T17:00:00.603Z,94908.23
2019-03-08T17:02:48.732Z,94910.77
2019-03-08T17:05:43.539Z,94917.09
2019-03-08T17:08:45.471Z,94911.48
2019-03-08T17:11:53.234Z,94919.13
2019-03-08T17:14:33.399Z,94927.08
2019-03-08T17:17:16.638Z,94929.19
2019-03-08T17:20:08.349Z,94933.20
2019-03-08T17:23:03.430Z,94939.30
2019-03-08T17:25:43.068Z,94943.78
2019-03-08T17:28:35.150Z,94951.28
2019-03-08T17:31:20.423Z,94949.05
2019-03-08T17:34:11.692Z,94950.65
2019-03-08T17:37:06.777Z,94958.72
2019-03-08T17:39:58.913Z,94958.98
2019-03-08T17:42:41.743Z,94959.07
2019-03-08T17:45:33.855Z,94955.42
2019-03-08T17:48:24.958Z,94960.89
2019-03-08T17:51:12.885Z,94960.80
2019-03-08T17:54:05.233Z,94970.51
2019-03-08T17:57:00.536Z,94969.73
2019-03-08T18:00:01.763Z,94974.42
2019-03-08T18:02:40.996Z,94969.02
2019-03-08T18:05:32.699Z,94981.90
2019-03-08T18:08:28.196Z,94988.64
2019-03-08T18:11:31.983Z,94992.53
2019-03-08T18:14:22.891Z,94988.92
2019-03-08T18:17:17.987Z,94987.27
2019-03-08T18:20:19.231Z,94985.36
2019-03-08T18:23:11.448Z,94990.16
2019-03-08T18:25:57.219Z,94988.97
2019-03-08T18:28:45.480Z,94989.80
2019-03-08T18:31:40.849Z,94998.89
2019-03-08T18:34:29.185Z,95001.40
2019-03-08T18:37:24.106Z,95001.84
2019-03-08T18:40:14.319Z,95003.80
2019-03-08T18:42:56.390Z,95002.72
2019-03-08T18:45:54.550Z,94998.88
2019-03-08T18:48:36.751Z,95002.00
2019-03-08T18:51:31.777Z,95014.03
2019-03-08T18:54:26.617Z,95006.82
2019-03-08T18:57:31.678Z,95006.73
2019-03-08T19:00:33.792Z,95013.89
2019-03-08T19:03:29.286Z,95017.66
2019-03-08T19:06:21.313Z,95019.22
2019-03-08T19:09:07.031Z,95021.53
2019-03-08T19:12:06.961Z,95020.80
2019-03-08T19:15:01.892Z,95021.41
2019-03-08T19:17:53.023Z,95032.86
2019-03-08T19:20:47.155Z,95029.41
2019-03-08T19:23:32.562Z,95038.56
2019-03-08T19:26:22.772Z,95042.39
2019-03-08T19:29:16.351Z,95049.52
2019-03-08T19:32:07.710Z,95040.29
2019-03-08T19:34:57.952Z,95051.47
2019-03-08T19:37:49.161Z,95047.15
2019-03-08T19:40:39.259Z,95045.72
2019-03-08T19:43:29.576Z,95044.86
2019-03-08T19:46:22.429Z,95041.98
2019-03-08T19:49:09.064Z,95045.39
2019-03-08T19:52:08.510Z,95049.17
2019-03-08T19:55:07.226Z,95047.30
2019-03-08T19:58:05.592Z,95042.89
2019-03-08T20:01:13.409Z,95041.25
2019-03-08T20:04:15.967Z,95042.78
2019-03-08T20:07:09.719Z,95045.46
2019-03-08T20:10:05.188Z,95049.88
2019-03-08T20:12:45.157Z,95055.33
2019-03-08T20:15:52.347Z,95056.77
2019-03-08T20:18:36.946Z,95057.53
2019-03-08T20:21:32.015Z,95060.59
2019-03-08T20:24:22.978Z,95061.43
2019-03-08T20:27:18.599Z,95059.59
2019-03-08T20:30:17.101Z,95061.52
2019-03-08T20:33:27.416Z,95056.53
2019-03-08T20:36:14.754Z,95056.64
2019-03-08T20:39:19.633Z,95059.50
2019-03-08T20:42:14.585Z,95059.42
2019-03-08T20:44:55.797Z,95063.50
2019-03-08T20:47:31.192Z,95069.37
2019-03-08T20:50:07.734Z,95067.39
2019-03-08T20:52:41.273Z,95074.55
2019-03-08T20:55:14.688Z,95066.06
2019-03-08T20:57:47.837Z,95059.97
2019-03-08T21:00:21.682Z,95057.25
2019-03-08T21:02:55.063Z,95061.00
2019-03-08T21:05:29.163Z,95057.49
2019-03-08T21:08:02.507Z,95054.39
2019-03-08T21:10:36.128Z,95057.50
2019-03-08T21:13:09.672Z,95057.91
2019-03-08T21:15:43.109Z,95059.03
2019-03-08T21:18:16.486Z,95054.55
2019-03-08T21:20:50.773Z,95062.59
2019-03-08T21:23:24.599Z,95063.96
2019-03-08T21:26:02.131Z,95056.72
2019-03-08T21:28:35.817Z,95058.20
2019-03-08T21:31:09.351Z,95054.45
2019-03-08T21:33:43.581Z,95050.70
2019-03-08T21:36:17.475Z,95060.76
2019-03-08T21:38:51.740Z,95063.20
2019-03-08T21:41:25.250Z,95061.05
2019-03-08T21:43:58.949Z,95067.00
2019-03-08T21:46:31.698Z,95065.94
2019-03-08T21:49:05.018Z,95065.25
2019-03-08T21:51:37.857Z,95074.72
2019-03-08T21:54:11.169Z,95076.02
2019-03-08T21:56:44.336Z,95073.09
2019-03-08T21:59:17.417Z,95076.35
2019-03-08T22:01:50.928Z,95080.82
2019-03-08T22:04:49.151Z,95073.03
2019-03-08T22:07:22.407Z,95078.64
2019-03-08T22:10:20.615Z,95075.14
2019-03-08T22:12:53.796Z,95078.13
2019-03-08T22:15:26.886Z,95076.56
2019-03-08T22:17:59.979Z,95078.24
2019-03-08T22:20:33.063Z,95081.97
2019-03-08T22:23:06.426Z,95077.31
2019-03-08T22:25:40.168Z,95080.45
2019-03-08T22:28:13.321Z,95079.25
2019-03-08T22:30:46.696Z,95080.52
2019-03-08T22:33:20.100Z,95081.94
2019-03-08T22:35:53.218Z,95085.49
2019-03-08T22:38:26.309Z,95089.95
2019-03-08T22:40:59.598Z,95092.63
2019-03-08T22:43:32.810Z,95096.42
2019-03-08T22:46:06.020Z,95097.61
2019-03-08T22:48:39.314Z,95101.25
2019-03-08T22:51:12.400Z,95098.94
2019-03-08T22:53:44.956Z,95102.84
2019-03-08T22:56:18.384Z,95106.41
2019-03-08T22:58:51.876Z,95099.27
2019-03-08T23:01:26.930Z,95106.06
2019-03-08T23:03:59.911Z,95104.17
2019-03-08T23:06:33.088Z,95101.00
2019-03-08T23:09:09.447Z,95109.41
2019-03-08T23:11:42.855Z,95107.63
2019-03-08T23:14:18.148Z,95107.77
2019-03-08T23:16:52.036Z,95119.84
2019-03-08T23:19:25.432Z,95117.88
2019-03-08T23:21:58.797Z,95115.36
2019-03-08T23:24:32.070Z,95125.23
2019-03-08T23:27:12.404Z,95132.20
2019-03-08T23:29:52.391Z,95129.70
2019-03-08T23:32:29.316Z,95131.91
2019-03-08T23:35:02.386Z,95135.08
2019-03-08T23:37:35.467Z,95138.61
2019-03-08T23:40:09.426Z,95141.55
2019-03-08T23:42:42.761Z,95133.84
2019-03-08T23:45:16.214Z,95134.05
2019-03-08T23:47:49.592Z,95133.24
2019-03-08T23:50:23.014Z,95134.40
2019-03-08T23:52:56.283Z,95132.16
2019-03-08T23:55:29.403Z,95131.02
2019-03-08T23:58:02.719Z,95132.06
